sensor_id;sensor_type;location;lat;lon;timestamp;P1;durP1;ratioP1;P2;durP2;ratioP2
68987;SDS011;56038;46.080;11.116;2022-10-30T00:01:39;10.35;;;4.65;;
68987;SDS011;56038;46.080;11.116;2022-10-30T00:06:42;7.60;;;5.07;;
68987;SDS011;56038;46.080;11.116;2022-10-30T00:11:45;11.63;;;5.00;;
68987;SDS011;56038;46.080;11.116;2022-10-30T00:16:47;9.05;;;4.90;;
68987;SDS011;56038;46.080;11.116;2022-10-30T00:21:49;8.32;;;4.85;;
68987;SDS011;56038;46.080;11.116;2022-10-30T00:26:52;8.70;;;5.25;;
68987;SDS011;56038;46.080;11.116;2022-10-30T00:31:54;5.35;;;4.45;;
68987;SDS011;56038;46.080;11.116;2022-10-30T00:36:56;6.65;;;4.53;;
68987;SDS011;56038;46.080;11.116;2022-10-30T00:41:59;7.88;;;5.10;;
68987;SDS011;56038;46.080;11.116;2022-10-30T00:47:01;13.50;;;5.10;;
68987;SDS011;56038;46.080;11.116;2022-10-30T00:52:07;9.05;;;4.57;;
68987;SDS011;56038;46.080;11.116;2022-10-30T00:57:12;11.27;;;5.10;;
68987;SDS011;56038;46.080;11.116;2022-10-30T01:02:14;10.25;;;5.30;;
68987;SDS011;56038;46.080;11.116;2022-10-30T01:07:16;13.75;;;4.90;;
68987;SDS011;56038;46.080;11.116;2022-10-30T01:12:19;9.95;;;5.13;;
68987;SDS011;56038;46.080;11.116;2022-10-30T01:17:29;7.93;;;4.60;;
68987;SDS011;56038;46.080;11.116;2022-10-30T01:22:51;9.00;;;4.90;;
68987;SDS011;56038;46.080;11.116;2022-10-30T01:28:03;9.85;;;4.68;;
68987;SDS011;56038;46.080;11.116;2022-10-30T01:33:17;8.90;;;5.30;;
68987;SDS011;56038;46.080;11.116;2022-10-30T01:38:31;8.53;;;4.80;;
68987;SDS011;56038;46.080;11.116;2022-10-30T01:43:41;10.18;;;4.97;;
68987;SDS011;56038;46.080;11.116;2022-10-30T01:48:52;12.60;;;5.17;;
68987;SDS011;56038;46.080;11.116;2022-10-30T01:54:15;5.93;;;4.05;;
68987;SDS011;56038;46.080;11.116;2022-10-30T01:59:29;6.18;;;4.25;;
68987;SDS011;56038;46.080;11.116;2022-10-30T02:04:35;7.97;;;5.25;;
68987;SDS011;56038;46.080;11.116;2022-10-30T02:09:40;8.25;;;4.03;;
68987;SDS011;56038;46.080;11.116;2022-10-30T02:14:44;5.90;;;4.60;;
68987;SDS011;56038;46.080;11.116;2022-10-30T02:19:48;6.63;;;4.38;;
68987;SDS011;56038;46.080;11.116;2022-10-30T02:24:52;7.10;;;4.32;;
68987;SDS011;56038;46.080;11.116;2022-10-30T02:29:53;7.05;;;4.15;;
68987;SDS011;56038;46.080;11.116;2022-10-30T02:34:55;10.52;;;4.25;;
68987;SDS011;56038;46.080;11.116;2022-10-30T02:39:58;12.95;;;4.93;;
68987;SDS011;56038;46.080;11.116;2022-10-30T02:45:00;7.95;;;4.05;;
68987;SDS011;56038;46.080;11.116;2022-10-30T02:50:02;6.00;;;3.88;;
68987;SDS011;56038;46.080;11.116;2022-10-30T02:55:06;11.00;;;4.43;;
68987;SDS011;56038;46.080;11.116;2022-10-30T03:00:08;9.48;;;4.15;;
68987;SDS011;56038;46.080;11.116;2022-10-30T03:05:11;7.10;;;4.20;;
68987;SDS011;56038;46.080;11.116;2022-10-30T03:10:14;5.85;;;4.20;;
68987;SDS011;56038;46.080;11.116;2022-10-30T03:15:16;9.50;;;4.00;;
68987;SDS011;56038;46.080;11.116;2022-10-30T03:20:18;11.63;;;5.43;;
68987;SDS011;56038;46.080;11.116;2022-10-30T03:25:21;9.50;;;4.25;;
68987;SDS011;56038;46.080;11.116;2022-10-30T03:30:23;10.30;;;4.47;;
68987;SDS011;56038;46.080;11.116;2022-10-30T03:35:25;9.07;;;4.75;;
68987;SDS011;56038;46.080;11.116;2022-10-30T03:40:28;9.52;;;4.47;;
68987;SDS011;56038;46.080;11.116;2022-10-30T03:45:30;7.93;;;4.63;;
68987;SDS011;56038;46.080;11.116;2022-10-30T03:50:32;5.45;;;3.70;;
68987;SDS011;56038;46.080;11.116;2022-10-30T03:55:35;7.30;;;4.50;;
68987;SDS011;56038;46.080;11.116;2022-10-30T04:00:37;8.63;;;4.88;;
68987;SDS011;56038;46.080;11.116;2022-10-30T04:05:39;10.18;;;4.60;;
68987;SDS011;56038;46.080;11.116;2022-10-30T04:10:43;9.25;;;4.00;;
68987;SDS011;56038;46.080;11.116;2022-10-30T04:15:46;12.30;;;3.90;;
68987;SDS011;56038;46.080;11.116;2022-10-30T04:20:48;7.93;;;4.68;;
68987;SDS011;56038;46.080;11.116;2022-10-30T04:25:51;6.25;;;3.58;;
68987;SDS011;56038;46.080;11.116;2022-10-30T04:30:53;6.78;;;4.00;;
68987;SDS011;56038;46.080;11.116;2022-10-30T04:35:56;11.32;;;4.95;;
68987;SDS011;56038;46.080;11.116;2022-10-30T04:40:59;7.35;;;3.70;;
68987;SDS011;56038;46.080;11.116;2022-10-30T04:46:02;9.70;;;4.00;;
68987;SDS011;56038;46.080;11.116;2022-10-30T04:51:04;6.30;;;3.80;;
68987;SDS011;56038;46.080;11.116;2022-10-30T04:56:08;8.00;;;4.07;;
68987;SDS011;56038;46.080;11.116;2022-10-30T05:01:10;10.25;;;3.53;;
68987;SDS011;56038;46.080;11.116;2022-10-30T05:06:14;6.72;;;4.07;;
68987;SDS011;56038;46.080;11.116;2022-10-30T05:11:25;9.65;;;4.05;;
68987;SDS011;56038;46.080;11.116;2022-10-30T05:16:26;8.35;;;3.85;;
68987;SDS011;56038;46.080;11.116;2022-10-30T05:21:28;8.93;;;3.95;;
68987;SDS011;56038;46.080;11.116;2022-10-30T05:26:31;7.95;;;3.92;;
68987;SDS011;56038;46.080;11.116;2022-10-30T05:31:33;7.57;;;4.18;;
68987;SDS011;56038;46.080;11.116;2022-10-30T05:36:35;8.15;;;3.88;;
68987;SDS011;56038;46.080;11.116;2022-10-30T05:41:38;7.28;;;3.70;;
68987;SDS011;56038;46.080;11.116;2022-10-30T05:46:40;11.43;;;4.10;;
68987;SDS011;56038;46.080;11.116;2022-10-30T05:51:42;6.25;;;4.18;;
68987;SDS011;56038;46.080;11.116;2022-10-30T05:56:45;7.93;;;4.13;;
68987;SDS011;56038;46.080;11.116;2022-10-30T06:01:47;7.22;;;3.88;;
68987;SDS011;56038;46.080;11.116;2022-10-30T06:06:49;9.30;;;4.05;;
68987;SDS011;56038;46.080;11.116;2022-10-30T06:11:53;6.53;;;3.63;;
68987;SDS011;56038;46.080;11.116;2022-10-30T06:16:54;7.30;;;3.88;;
68987;SDS011;56038;46.080;11.116;2022-10-30T06:21:56;8.48;;;4.13;;
68987;SDS011;56038;46.080;11.116;2022-10-30T06:26:59;4.85;;;3.70;;
68987;SDS011;56038;46.080;11.116;2022-10-30T06:32:01;8.63;;;4.18;;
68987;SDS011;56038;46.080;11.116;2022-10-30T06:37:03;9.40;;;3.92;;
68987;SDS011;56038;46.080;11.116;2022-10-30T06:42:06;7.88;;;4.05;;
68987;SDS011;56038;46.080;11.116;2022-10-30T06:47:08;9.85;;;4.00;;
68987;SDS011;56038;46.080;11.116;2022-10-30T06:52:10;8.43;;;4.25;;
68987;SDS011;56038;46.080;11.116;2022-10-30T06:57:14;10.00;;;4.78;;
68987;SDS011;56038;46.080;11.116;2022-10-30T07:02:16;12.50;;;6.38;;
68987;SDS011;56038;46.080;11.116;2022-10-30T07:07:17;7.28;;;5.05;;
68987;SDS011;56038;46.080;11.116;2022-10-30T07:12:21;11.25;;;5.43;;
68987;SDS011;56038;46.080;11.116;2022-10-30T07:17:22;10.25;;;4.95;;
68987;SDS011;56038;46.080;11.116;2022-10-30T07:22:24;10.82;;;4.57;;
68987;SDS011;56038;46.080;11.116;2022-10-30T07:27:27;24.67;;;5.55;;
68987;SDS011;56038;46.080;11.116;2022-10-30T07:32:29;9.70;;;3.85;;
68987;SDS011;56038;46.080;11.116;2022-10-30T07:37:31;8.07;;;3.85;;
68987;SDS011;56038;46.080;11.116;2022-10-30T07:42:34;9.50;;;5.30;;
68987;SDS011;56038;46.080;11.116;2022-10-30T07:47:37;8.80;;;3.97;;
68987;SDS011;56038;46.080;11.116;2022-10-30T07:52:40;8.02;;;4.68;;
68987;SDS011;56038;46.080;11.116;2022-10-30T07:57:43;11.30;;;5.32;;
68987;SDS011;56038;46.080;11.116;2022-10-30T08:02:47;10.05;;;5.45;;
68987;SDS011;56038;46.080;11.116;2022-10-30T08:07:50;9.50;;;4.45;;
68987;SDS011;56038;46.080;11.116;2022-10-30T08:12:53;10.35;;;3.97;;
68987;SDS011;56038;46.080;11.116;2022-10-30T08:17:55;8.00;;;4.07;;
68987;SDS011;56038;46.080;11.116;2022-10-30T08:22:56;8.20;;;4.13;;
68987;SDS011;56038;46.080;11.116;2022-10-30T08:28:00;12.48;;;4.82;;
68987;SDS011;56038;46.080;11.116;2022-10-30T08:33:05;10.38;;;4.15;;
68987;SDS011;56038;46.080;11.116;2022-10-30T08:38:08;11.55;;;4.13;;
68987;SDS011;56038;46.080;11.116;2022-10-30T08:43:11;10.55;;;3.53;;
68987;SDS011;56038;46.080;11.116;2022-10-30T08:48:13;9.20;;;3.65;;
68987;SDS011;56038;46.080;11.116;2022-10-30T08:53:16;8.10;;;3.55;;
68987;SDS011;56038;46.080;11.116;2022-10-30T08:58:20;10.40;;;4.20;;
68987;SDS011;56038;46.080;11.116;2022-10-30T09:03:22;7.10;;;3.53;;
68987;SDS011;56038;46.080;11.116;2022-10-30T09:08:24;8.25;;;3.67;;
68987;SDS011;56038;46.080;11.116;2022-10-30T09:13:27;8.57;;;3.70;;
68987;SDS011;56038;46.080;11.116;2022-10-30T09:18:29;11.27;;;4.25;;
68987;SDS011;56038;46.080;11.116;2022-10-30T09:23:31;6.38;;;3.65;;
68987;SDS011;56038;46.080;11.116;2022-10-30T09:28:34;9.23;;;3.78;;
68987;SDS011;56038;46.080;11.116;2022-10-30T09:33:36;8.77;;;3.40;;
68987;SDS011;56038;46.080;11.116;2022-10-30T09:38:38;7.13;;;3.25;;
68987;SDS011;56038;46.080;11.116;2022-10-30T09:43:45;11.18;;;3.55;;
68987;SDS011;56038;46.080;11.116;2022-10-30T09:49:09;8.52;;;3.85;;
68987;SDS011;56038;46.080;11.116;2022-10-30T09:54:26;12.82;;;4.93;;
68987;SDS011;56038;46.080;11.116;2022-10-30T09:59:41;7.00;;;3.38;;
68987;SDS011;56038;46.080;11.116;2022-10-30T10:04:51;10.50;;;3.40;;
68987;SDS011;56038;46.080;11.116;2022-10-30T10:09:59;7.50;;;3.38;;
68987;SDS011;56038;46.080;11.116;2022-10-30T10:15:09;10.15;;;3.30;;
68987;SDS011;56038;46.080;11.116;2022-10-30T10:20:16;4.85;;;3.17;;
68987;SDS011;56038;46.080;11.116;2022-10-30T10:25:23;10.55;;;3.22;;
68987;SDS011;56038;46.080;11.116;2022-10-30T10:30:28;10.70;;;3.42;;
68987;SDS011;56038;46.080;11.116;2022-10-30T10:35:39;9.82;;;3.13;;
68987;SDS011;56038;46.080;11.116;2022-10-30T10:40:53;8.65;;;3.30;;
68987;SDS011;56038;46.080;11.116;2022-10-30T10:46:09;11.93;;;3.55;;
68987;SDS011;56038;46.080;11.116;2022-10-30T10:51:26;10.32;;;3.10;;
68987;SDS011;56038;46.080;11.116;2022-10-30T10:56:35;6.80;;;2.90;;
68987;SDS011;56038;46.080;11.116;2022-10-30T11:01:43;12.88;;;3.58;;
68987;SDS011;56038;46.080;11.116;2022-10-30T11:06:51;8.85;;;2.92;;
68987;SDS011;56038;46.080;11.116;2022-10-30T11:11:56;6.57;;;3.00;;
68987;SDS011;56038;46.080;11.116;2022-10-30T11:17:01;9.25;;;3.45;;
68987;SDS011;56038;46.080;11.116;2022-10-30T11:22:13;7.88;;;2.90;;
68987;SDS011;56038;46.080;11.116;2022-10-30T11:27:24;9.70;;;3.15;;
68987;SDS011;56038;46.080;11.116;2022-10-30T11:32:29;8.02;;;3.40;;
68987;SDS011;56038;46.080;11.116;2022-10-30T11:37:33;6.70;;;3.10;;
68987;SDS011;56038;46.080;11.116;2022-10-30T11:42:36;11.23;;;3.20;;
68987;SDS011;56038;46.080;11.116;2022-10-30T11:47:41;8.47;;;3.10;;
68987;SDS011;56038;46.080;11.116;2022-10-30T11:52:43;6.05;;;3.13;;
68987;SDS011;56038;46.080;11.116;2022-10-30T11:57:47;11.60;;;4.38;;
68987;SDS011;56038;46.080;11.116;2022-10-30T12:07:54;6.55;;;4.05;;
68987;SDS011;56038;46.080;11.116;2022-10-30T12:13:20;6.57;;;3.47;;
68987;SDS011;56038;46.080;11.116;2022-10-30T12:18:25;7.20;;;2.90;;
68987;SDS011;56038;46.080;11.116;2022-10-30T12:23:28;13.02;;;5.97;;
68987;SDS011;56038;46.080;11.116;2022-10-30T12:28:31;8.23;;;3.20;;
68987;SDS011;56038;46.080;11.116;2022-10-30T12:33:37;5.97;;;3.00;;
68987;SDS011;56038;46.080;11.116;2022-10-30T12:38:44;6.65;;;2.88;;
68987;SDS011;56038;46.080;11.116;2022-10-30T12:43:51;8.80;;;3.25;;
68987;SDS011;56038;46.080;11.116;2022-10-30T12:49:06;10.52;;;4.32;;
68987;SDS011;56038;46.080;11.116;2022-10-30T12:54:18;9.00;;;3.05;;
68987;SDS011;56038;46.080;11.116;2022-10-30T12:59:29;9.20;;;3.10;;
68987;SDS011;56038;46.080;11.116;2022-10-30T13:04:41;9.27;;;4.38;;
68987;SDS011;56038;46.080;11.116;2022-10-30T13:09:48;13.25;;;3.90;;
68987;SDS011;56038;46.080;11.116;2022-10-30T13:14:58;5.93;;;3.22;;
68987;SDS011;56038;46.080;11.116;2022-10-30T13:20:07;10.00;;;3.38;;
68987;SDS011;56038;46.080;11.116;2022-10-30T13:25:14;8.30;;;3.15;;
68987;SDS011;56038;46.080;11.116;2022-10-30T13:30:26;9.93;;;3.25;;
68987;SDS011;56038;46.080;11.116;2022-10-30T13:35:34;9.65;;;3.67;;
68987;SDS011;56038;46.080;11.116;2022-10-30T13:40:43;8.95;;;4.07;;
68987;SDS011;56038;46.080;11.116;2022-10-30T13:51:38;6.85;;;3.38;;
68987;SDS011;56038;46.080;11.116;2022-10-30T13:56:43;11.35;;;3.75;;
68987;SDS011;56038;46.080;11.116;2022-10-30T14:06:56;12.13;;;3.83;;
68987;SDS011;56038;46.080;11.116;2022-10-30T14:23:21;13.20;;;3.70;;
68987;SDS011;56038;46.080;11.116;2022-10-30T14:28:25;8.15;;;3.50;;
68987;SDS011;56038;46.080;11.116;2022-10-30T14:33:39;8.07;;;3.42;;
68987;SDS011;56038;46.080;11.116;2022-10-30T14:38:57;13.32;;;3.60;;
68987;SDS011;56038;46.080;11.116;2022-10-30T14:44:14;10.18;;;3.05;;
68987;SDS011;56038;46.080;11.116;2022-10-30T14:49:32;7.95;;;3.20;;
68987;SDS011;56038;46.080;11.116;2022-10-30T14:54:49;8.90;;;3.42;;
68987;SDS011;56038;46.080;11.116;2022-10-30T15:05:37;9.85;;;3.45;;
68987;SDS011;56038;46.080;11.116;2022-10-30T15:10:59;10.52;;;3.70;;
68987;SDS011;56038;46.080;11.116;2022-10-30T15:16:12;8.48;;;3.70;;
68987;SDS011;56038;46.080;11.116;2022-10-30T15:21:17;9.30;;;3.78;;
68987;SDS011;56038;46.080;11.116;2022-10-30T15:26:25;7.07;;;3.55;;
68987;SDS011;56038;46.080;11.116;2022-10-30T15:31:33;12.55;;;4.15;;
68987;SDS011;56038;46.080;11.116;2022-10-30T15:36:39;10.45;;;3.80;;
68987;SDS011;56038;46.080;11.116;2022-10-30T15:41:43;9.35;;;3.85;;
68987;SDS011;56038;46.080;11.116;2022-10-30T15:46:48;10.32;;;4.18;;
68987;SDS011;56038;46.080;11.116;2022-10-30T15:51:52;9.10;;;3.60;;
68987;SDS011;56038;46.080;11.116;2022-10-30T15:56:55;11.57;;;3.85;;
68987;SDS011;56038;46.080;11.116;2022-10-30T16:01:58;12.50;;;4.53;;
68987;SDS011;56038;46.080;11.116;2022-10-30T16:07:01;10.18;;;3.90;;
68987;SDS011;56038;46.080;11.116;2022-10-30T16:12:17;10.40;;;3.85;;
68987;SDS011;56038;46.080;11.116;2022-10-30T16:17:19;8.88;;;3.95;;
68987;SDS011;56038;46.080;11.116;2022-10-30T16:22:22;12.15;;;7.30;;
68987;SDS011;56038;46.080;11.116;2022-10-30T16:27:28;11.13;;;4.70;;
68987;SDS011;56038;46.080;11.116;2022-10-30T16:32:30;12.48;;;4.40;;
68987;SDS011;56038;46.080;11.116;2022-10-30T16:37:32;12.68;;;5.10;;
68987;SDS011;56038;46.080;11.116;2022-10-30T16:42:36;8.27;;;4.57;;
68987;SDS011;56038;46.080;11.116;2022-10-30T16:47:38;11.93;;;5.13;;
68987;SDS011;56038;46.080;11.116;2022-10-30T16:52:43;10.00;;;4.70;;
68987;SDS011;56038;46.080;11.116;2022-10-30T16:57:47;13.63;;;6.30;;
68987;SDS011;56038;46.080;11.116;2022-10-30T17:02:55;11.00;;;5.47;;
68987;SDS011;56038;46.080;11.116;2022-10-30T17:07:59;10.85;;;5.78;;
68987;SDS011;56038;46.080;11.116;2022-10-30T17:18:38;13.32;;;4.93;;
68987;SDS011;56038;46.080;11.116;2022-10-30T17:23:43;11.55;;;5.68;;
68987;SDS011;56038;46.080;11.116;2022-10-30T17:28:47;17.10;;;8.02;;
68987;SDS011;56038;46.080;11.116;2022-10-30T17:34:10;13.25;;;6.88;;
68987;SDS011;56038;46.080;11.116;2022-10-30T17:39:16;13.70;;;6.60;;
68987;SDS011;56038;46.080;11.116;2022-10-30T17:44:20;13.98;;;6.57;;
68987;SDS011;56038;46.080;11.116;2022-10-30T17:49:26;13.73;;;6.90;;
68987;SDS011;56038;46.080;11.116;2022-10-30T17:54:30;14.05;;;5.68;;
68987;SDS011;56038;46.080;11.116;2022-10-30T17:59:33;11.57;;;5.78;;
68987;SDS011;56038;46.080;11.116;2022-10-30T18:04:35;15.52;;;6.63;;
68987;SDS011;56038;46.080;11.116;2022-10-30T18:09:37;12.07;;;7.80;;
68987;SDS011;56038;46.080;11.116;2022-10-30T18:14:41;10.75;;;7.03;;
68987;SDS011;56038;46.080;11.116;2022-10-30T18:19:44;13.55;;;6.70;;
68987;SDS011;56038;46.080;11.116;2022-10-30T18:24:46;11.60;;;6.22;;
68987;SDS011;56038;46.080;11.116;2022-10-30T18:29:50;14.18;;;9.65;;
68987;SDS011;56038;46.080;11.116;2022-10-30T18:34:51;17.95;;;8.30;;
68987;SDS011;56038;46.080;11.116;2022-10-30T18:39:53;14.27;;;7.55;;
68987;SDS011;56038;46.080;11.116;2022-10-30T18:44:56;14.82;;;7.47;;
68987;SDS011;56038;46.080;11.116;2022-10-30T18:49:58;10.23;;;7.95;;
68987;SDS011;56038;46.080;11.116;2022-10-30T18:55:00;13.57;;;9.25;;
68987;SDS011;56038;46.080;11.116;2022-10-30T19:00:04;15.63;;;8.70;;
68987;SDS011;56038;46.080;11.116;2022-10-30T19:05:12;21.42;;;8.93;;
68987;SDS011;56038;46.080;11.116;2022-10-30T19:10:22;12.97;;;7.17;;
68987;SDS011;56038;46.080;11.116;2022-10-30T19:15:27;15.55;;;8.10;;
68987;SDS011;56038;46.080;11.116;2022-10-30T19:20:32;17.17;;;9.32;;
68987;SDS011;56038;46.080;11.116;2022-10-30T19:25:35;19.02;;;10.20;;
68987;SDS011;56038;46.080;11.116;2022-10-30T19:30:38;17.10;;;9.85;;
68987;SDS011;56038;46.080;11.116;2022-10-30T19:35:40;12.15;;;8.05;;
68987;SDS011;56038;46.080;11.116;2022-10-30T19:40:42;16.13;;;9.30;;
68987;SDS011;56038;46.080;11.116;2022-10-30T19:45:45;11.93;;;8.27;;
68987;SDS011;56038;46.080;11.116;2022-10-30T19:50:47;16.80;;;8.55;;
68987;SDS011;56038;46.080;11.116;2022-10-30T19:55:49;16.23;;;8.20;;
68987;SDS011;56038;46.080;11.116;2022-10-30T20:06:09;11.95;;;7.22;;
68987;SDS011;56038;46.080;11.116;2022-10-30T20:11:12;16.15;;;7.13;;
68987;SDS011;56038;46.080;11.116;2022-10-30T20:16:15;10.02;;;5.88;;
68987;SDS011;56038;46.080;11.116;2022-10-30T20:21:17;8.88;;;5.93;;
68987;SDS011;56038;46.080;11.116;2022-10-30T20:26:21;12.23;;;6.55;;
68987;SDS011;56038;46.080;11.116;2022-10-30T20:31:26;17.42;;;8.35;;
68987;SDS011;56038;46.080;11.116;2022-10-30T20:36:28;17.40;;;8.32;;
68987;SDS011;56038;46.080;11.116;2022-10-30T20:41:30;18.00;;;8.88;;
68987;SDS011;56038;46.080;11.116;2022-10-30T20:46:34;13.90;;;7.90;;
68987;SDS011;56038;46.080;11.116;2022-10-30T20:51:36;12.80;;;7.78;;
68987;SDS011;56038;46.080;11.116;2022-10-30T20:56:38;10.55;;;7.45;;
68987;SDS011;56038;46.080;11.116;2022-10-30T21:01:41;12.88;;;8.75;;
68987;SDS011;56038;46.080;11.116;2022-10-30T21:06:43;10.20;;;7.78;;
68987;SDS011;56038;46.080;11.116;2022-10-30T21:11:45;16.23;;;13.23;;
68987;SDS011;56038;46.080;11.116;2022-10-30T21:16:48;18.40;;;13.07;;
68987;SDS011;56038;46.080;11.116;2022-10-30T21:21:50;20.40;;;13.52;;
68987;SDS011;56038;46.080;11.116;2022-10-30T21:26:51;28.40;;;16.42;;
68987;SDS011;56038;46.080;11.116;2022-10-30T21:31:55;25.42;;;16.63;;
68987;SDS011;56038;46.080;11.116;2022-10-30T21:36:56;21.60;;;14.85;;
68987;SDS011;56038;46.080;11.116;2022-10-30T21:41:59;12.90;;;8.52;;
68987;SDS011;56038;46.080;11.116;2022-10-30T21:47:02;13.32;;;6.75;;
68987;SDS011;56038;46.080;11.116;2022-10-30T21:52:04;14.48;;;6.50;;
68987;SDS011;56038;46.080;11.116;2022-10-30T21:57:06;10.68;;;6.53;;
68987;SDS011;56038;46.080;11.116;2022-10-30T22:02:11;11.43;;;7.03;;
68987;SDS011;56038;46.080;11.116;2022-10-30T22:12:17;13.18;;;6.30;;
68987;SDS011;56038;46.080;11.116;2022-10-30T22:17:20;12.48;;;6.25;;
68987;SDS011;56038;46.080;11.116;2022-10-30T22:22:22;17.65;;;7.43;;
68987;SDS011;56038;46.080;11.116;2022-10-30T22:27:24;12.75;;;7.28;;
68987;SDS011;56038;46.080;11.116;2022-10-30T22:32:27;14.50;;;6.80;;
68987;SDS011;56038;46.080;11.116;2022-10-30T22:37:29;8.52;;;5.80;;
68987;SDS011;56038;46.080;11.116;2022-10-30T22:42:30;12.32;;;5.95;;
68987;SDS011;56038;46.080;11.116;2022-10-30T22:47:36;9.30;;;6.32;;
68987;SDS011;56038;46.080;11.116;2022-10-30T22:52:38;14.65;;;7.10;;
68987;SDS011;56038;46.080;11.116;2022-10-30T22:57:40;10.23;;;5.88;;
68987;SDS011;56038;46.080;11.116;2022-10-30T23:02:43;11.20;;;6.30;;
68987;SDS011;56038;46.080;11.116;2022-10-30T23:07:45;10.20;;;6.65;;
68987;SDS011;56038;46.080;11.116;2022-10-30T23:12:46;9.95;;;6.07;;
68987;SDS011;56038;46.080;11.116;2022-10-30T23:17:50;8.80;;;5.80;;
68987;SDS011;56038;46.080;11.116;2022-10-30T23:22:51;9.77;;;5.82;;
68987;SDS011;56038;46.080;11.116;2022-10-30T23:27:53;12.23;;;6.43;;
68987;SDS011;56038;46.080;11.116;2022-10-30T23:32:56;14.98;;;5.95;;
68987;SDS011;56038;46.080;11.116;2022-10-30T23:37:58;8.80;;;6.32;;
68987;SDS011;56038;46.080;11.116;2022-10-30T23:43:00;12.55;;;6.25;;
68987;SDS011;56038;46.080;11.116;2022-10-30T23:48:03;9.55;;;5.95;;
68987;SDS011;56038;46.080;11.116;2022-10-30T23:53:05;9.70;;;6.35;;
68987;SDS011;56038;46.080;11.116;2022-10-30T23:58:07;14.90;;;5.75;;
